sensor_id;sensor_type;location;lat;lon;timestamp;temperature;humidity
14771;DHT22;7477;45.222;5.688;2023-03-01T00:01:30;4.20;97.10
14771;DHT22;7477;45.222;5.688;2023-03-01T00:04:50;4.20;97.20
14771;DHT22;7477;45.222;5.688;2023-03-01T00:08:09;4.20;97.20
14771;DHT22;7477;45.222;5.688;2023-03-01T00:11:30;4.30;97.20
14771;DHT22;7477;45.222;5.688;2023-03-01T00:14:50;4.30;97.30
14771;DHT22;7477;45.222;5.688;2023-03-01T00:18:09;4.20;97.30
14771;DHT22;7477;45.222;5.688;2023-03-01T00:21:29;4.20;97.40
14771;DHT22;7477;45.222;5.688;2023-03-01T00:24:48;4.30;97.40
14771;DHT22;7477;45.222;5.688;2023-03-01T00:28:07;4.20;97.30
14771;DHT22;7477;45.222;5.688;2023-03-01T00:31:29;4.30;97.40
14771;DHT22;7477;45.222;5.688;2023-03-01T00:34:49;4.30;97.30
14771;DHT22;7477;45.222;5.688;2023-03-01T00:38:14;4.30;97.60
14771;DHT22;7477;45.222;5.688;2023-03-01T00:41:33;4.30;97.30
14771;DHT22;7477;45.222;5.688;2023-03-01T00:44:53;4.30;97.70
14771;DHT22;7477;45.222;5.688;2023-03-01T00:48:12;4.30;97.60
14771;DHT22;7477;45.222;5.688;2023-03-01T00:51:32;4.30;97.70
14771;DHT22;7477;45.222;5.688;2023-03-01T00:54:52;4.30;97.80
14771;DHT22;7477;45.222;5.688;2023-03-01T00:58:12;4.30;97.70
14771;DHT22;7477;45.222;5.688;2023-03-01T01:01:31;4.40;97.80
14771;DHT22;7477;45.222;5.688;2023-03-01T01:04:50;4.40;97.80
14771;DHT22;7477;45.222;5.688;2023-03-01T01:08:09;4.40;97.70
14771;DHT22;7477;45.222;5.688;2023-03-01T01:11:29;4.40;97.60
14771;DHT22;7477;45.222;5.688;2023-03-01T01:14:49;4.40;97.70
14771;DHT22;7477;45.222;5.688;2023-03-01T01:18:08;4.40;97.80
14771;DHT22;7477;45.222;5.688;2023-03-01T01:21:29;4.40;97.80
14771;DHT22;7477;45.222;5.688;2023-03-01T01:24:48;4.40;98.10
14771;DHT22;7477;45.222;5.688;2023-03-01T01:28:07;4.30;98.00
14771;DHT22;7477;45.222;5.688;2023-03-01T01:31:27;4.40;98.20
14771;DHT22;7477;45.222;5.688;2023-03-01T01:34:47;4.40;98.00
14771;DHT22;7477;45.222;5.688;2023-03-01T01:38:06;4.40;98.30
14771;DHT22;7477;45.222;5.688;2023-03-01T01:41:27;4.40;98.50
14771;DHT22;7477;45.222;5.688;2023-03-01T01:44:47;4.40;98.50
14771;DHT22;7477;45.222;5.688;2023-03-01T01:48:16;4.40;98.40
14771;DHT22;7477;45.222;5.688;2023-03-01T01:51:40;4.30;98.70
14771;DHT22;7477;45.222;5.688;2023-03-01T01:55:08;4.30;98.60
14771;DHT22;7477;45.222;5.688;2023-03-01T01:58:30;4.30;98.70
14771;DHT22;7477;45.222;5.688;2023-03-01T02:01:51;4.30;98.50
14771;DHT22;7477;45.222;5.688;2023-03-01T02:05:29;4.30;98.50
14771;DHT22;7477;45.222;5.688;2023-03-01T02:08:52;4.40;98.70
14771;DHT22;7477;45.222;5.688;2023-03-01T02:12:14;4.30;98.90
14771;DHT22;7477;45.222;5.688;2023-03-01T02:15:35;4.40;99.30
14771;DHT22;7477;45.222;5.688;2023-03-01T02:18:55;4.40;99.10
14771;DHT22;7477;45.222;5.688;2023-03-01T02:22:20;4.30;98.90
14771;DHT22;7477;45.222;5.688;2023-03-01T02:25:50;4.30;98.70
14771;DHT22;7477;45.222;5.688;2023-03-01T02:29:11;4.30;98.70
14771;DHT22;7477;45.222;5.688;2023-03-01T02:32:31;4.30;98.70
14771;DHT22;7477;45.222;5.688;2023-03-01T02:35:51;4.30;98.80
14771;DHT22;7477;45.222;5.688;2023-03-01T02:39:18;4.30;98.90
14771;DHT22;7477;45.222;5.688;2023-03-01T02:42:59;4.30;99.10
14771;DHT22;7477;45.222;5.688;2023-03-01T02:46:22;4.30;99.30
14771;DHT22;7477;45.222;5.688;2023-03-01T02:49:42;4.30;99.50
14771;DHT22;7477;45.222;5.688;2023-03-01T02:56:45;4.20;98.90
14771;DHT22;7477;45.222;5.688;2023-03-01T03:00:13;4.20;98.90
14771;DHT22;7477;45.222;5.688;2023-03-01T03:03:39;4.20;99.20
14771;DHT22;7477;45.222;5.688;2023-03-01T03:06:58;4.20;99.40
14771;DHT22;7477;45.222;5.688;2023-03-01T03:10:23;4.20;99.80
14771;DHT22;7477;45.222;5.688;2023-03-01T03:13:43;4.30;99.90
14771;DHT22;7477;45.222;5.688;2023-03-01T03:17:07;4.30;99.90
14771;DHT22;7477;45.222;5.688;2023-03-01T03:20:28;4.30;99.90
14771;DHT22;7477;45.222;5.688;2023-03-01T03:23:48;4.30;99.90
14771;DHT22;7477;45.222;5.688;2023-03-01T03:27:07;4.30;99.90
14771;DHT22;7477;45.222;5.688;2023-03-01T03:30:31;4.30;99.90
14771;DHT22;7477;45.222;5.688;2023-03-01T03:33:50;4.30;99.90
14771;DHT22;7477;45.222;5.688;2023-03-01T03:37:09;4.20;99.80
14771;DHT22;7477;45.222;5.688;2023-03-01T03:44:09;4.30;99.70
14771;DHT22;7477;45.222;5.688;2023-03-01T03:47:28;4.30;99.60
14771;DHT22;7477;45.222;5.688;2023-03-01T03:50:50;4.30;99.40
14771;DHT22;7477;45.222;5.688;2023-03-01T03:54:09;4.20;99.70
14771;DHT22;7477;45.222;5.688;2023-03-01T03:57:29;4.20;99.80
14771;DHT22;7477;45.222;5.688;2023-03-01T04:00:54;4.20;99.90
14771;DHT22;7477;45.222;5.688;2023-03-01T04:04:17;4.20;99.90
14771;DHT22;7477;45.222;5.688;2023-03-01T04:07:38;4.20;99.80
14771;DHT22;7477;45.222;5.688;2023-03-01T04:11:00;4.20;99.70
14771;DHT22;7477;45.222;5.688;2023-03-01T04:14:40;4.20;99.60
14771;DHT22;7477;45.222;5.688;2023-03-01T04:17:59;4.20;99.90
14771;DHT22;7477;45.222;5.688;2023-03-01T04:21:19;4.20;99.90
14771;DHT22;7477;45.222;5.688;2023-03-01T04:24:38;4.20;99.90
14771;DHT22;7477;45.222;5.688;2023-03-01T04:27:58;4.20;99.60
14771;DHT22;7477;45.222;5.688;2023-03-01T04:31:19;4.20;99.40
14771;DHT22;7477;45.222;5.688;2023-03-01T04:34:40;4.20;99.50
14771;DHT22;7477;45.222;5.688;2023-03-01T04:37:59;4.10;99.20
14771;DHT22;7477;45.222;5.688;2023-03-01T04:41:19;4.20;99.50
14771;DHT22;7477;45.222;5.688;2023-03-01T04:44:39;4.20;99.20
14771;DHT22;7477;45.222;5.688;2023-03-01T04:47:59;4.10;99.20
14771;DHT22;7477;45.222;5.688;2023-03-01T04:51:18;4.10;99.00
14771;DHT22;7477;45.222;5.688;2023-03-01T04:54:37;4.00;98.70
14771;DHT22;7477;45.222;5.688;2023-03-01T04:57:56;4.10;98.90
14771;DHT22;7477;45.222;5.688;2023-03-01T05:01:18;4.00;98.70
14771;DHT22;7477;45.222;5.688;2023-03-01T05:04:38;4.00;98.70
14771;DHT22;7477;45.222;5.688;2023-03-01T05:08:00;4.00;98.80
14771;DHT22;7477;45.222;5.688;2023-03-01T05:11:19;4.10;98.80
14771;DHT22;7477;45.222;5.688;2023-03-01T05:14:38;4.00;98.70
14771;DHT22;7477;45.222;5.688;2023-03-01T05:17:59;4.00;98.60
14771;DHT22;7477;45.222;5.688;2023-03-01T05:21:18;3.90;98.50
14771;DHT22;7477;45.222;5.688;2023-03-01T05:24:37;4.00;98.60
14771;DHT22;7477;45.222;5.688;2023-03-01T05:27:57;4.00;98.80
14771;DHT22;7477;45.222;5.688;2023-03-01T05:31:16;4.00;98.70
14771;DHT22;7477;45.222;5.688;2023-03-01T05:34:36;3.90;98.80
14771;DHT22;7477;45.222;5.688;2023-03-01T05:37:55;3.90;98.70
14771;DHT22;7477;45.222;5.688;2023-03-01T05:41:15;3.90;98.80
14771;DHT22;7477;45.222;5.688;2023-03-01T05:44:35;3.90;98.80
14771;DHT22;7477;45.222;5.688;2023-03-01T05:47:55;3.90;99.00
14771;DHT22;7477;45.222;5.688;2023-03-01T05:51:14;4.00;98.80
14771;DHT22;7477;45.222;5.688;2023-03-01T05:54:33;3.90;98.70
14771;DHT22;7477;45.222;5.688;2023-03-01T05:57:53;3.80;98.60
14771;DHT22;7477;45.222;5.688;2023-03-01T06:01:12;3.90;98.60
14771;DHT22;7477;45.222;5.688;2023-03-01T06:04:32;3.80;98.50
14771;DHT22;7477;45.222;5.688;2023-03-01T06:07:51;3.90;98.80
14771;DHT22;7477;45.222;5.688;2023-03-01T06:11:12;4.00;98.80
14771;DHT22;7477;45.222;5.688;2023-03-01T06:14:31;3.80;98.60
14771;DHT22;7477;45.222;5.688;2023-03-01T06:17:50;3.80;98.70
14771;DHT22;7477;45.222;5.688;2023-03-01T06:21:09;3.90;98.70
14771;DHT22;7477;45.222;5.688;2023-03-01T06:24:29;3.90;99.00
14771;DHT22;7477;45.222;5.688;2023-03-01T06:27:49;3.80;98.70
14771;DHT22;7477;45.222;5.688;2023-03-01T06:31:08;3.80;98.80
14771;DHT22;7477;45.222;5.688;2023-03-01T06:34:28;3.90;99.10
14771;DHT22;7477;45.222;5.688;2023-03-01T06:37:48;3.80;98.90
14771;DHT22;7477;45.222;5.688;2023-03-01T06:41:07;3.80;99.00
14771;DHT22;7477;45.222;5.688;2023-03-01T06:44:27;3.70;99.00
14771;DHT22;7477;45.222;5.688;2023-03-01T06:47:47;3.80;98.90
14771;DHT22;7477;45.222;5.688;2023-03-01T06:51:06;3.80;98.80
14771;DHT22;7477;45.222;5.688;2023-03-01T06:54:25;3.70;98.70
14771;DHT22;7477;45.222;5.688;2023-03-01T06:57:44;3.70;98.80
14771;DHT22;7477;45.222;5.688;2023-03-01T07:01:07;3.70;98.90
14771;DHT22;7477;45.222;5.688;2023-03-01T07:04:27;3.90;98.90
14771;DHT22;7477;45.222;5.688;2023-03-01T07:07:47;3.70;98.90
14771;DHT22;7477;45.222;5.688;2023-03-01T07:11:07;3.70;98.90
14771;DHT22;7477;45.222;5.688;2023-03-01T07:14:27;3.60;98.70
14771;DHT22;7477;45.222;5.688;2023-03-01T07:17:46;3.70;99.00
14771;DHT22;7477;45.222;5.688;2023-03-01T07:21:12;3.70;98.90
14771;DHT22;7477;45.222;5.688;2023-03-01T07:24:31;3.80;99.10
14771;DHT22;7477;45.222;5.688;2023-03-01T07:27:51;3.60;99.00
14771;DHT22;7477;45.222;5.688;2023-03-01T07:31:11;3.60;99.10
14771;DHT22;7477;45.222;5.688;2023-03-01T07:34:30;3.60;99.20
14771;DHT22;7477;45.222;5.688;2023-03-01T07:37:49;3.50;99.10
14771;DHT22;7477;45.222;5.688;2023-03-01T07:41:08;3.60;99.10
14771;DHT22;7477;45.222;5.688;2023-03-01T07:44:27;3.60;99.10
14771;DHT22;7477;45.222;5.688;2023-03-01T07:47:47;3.50;99.00
14771;DHT22;7477;45.222;5.688;2023-03-01T07:51:07;3.50;99.00
14771;DHT22;7477;45.222;5.688;2023-03-01T07:54:26;3.50;98.90
14771;DHT22;7477;45.222;5.688;2023-03-01T07:57:45;3.60;99.00
14771;DHT22;7477;45.222;5.688;2023-03-01T08:01:06;3.50;98.90
14771;DHT22;7477;45.222;5.688;2023-03-01T08:04:26;3.60;98.90
14771;DHT22;7477;45.222;5.688;2023-03-01T08:07:45;3.50;98.80
14771;DHT22;7477;45.222;5.688;2023-03-01T08:11:06;3.50;98.90
14771;DHT22;7477;45.222;5.688;2023-03-01T08:14:26;3.50;98.80
14771;DHT22;7477;45.222;5.688;2023-03-01T08:17:45;3.60;98.90
14771;DHT22;7477;45.222;5.688;2023-03-01T08:21:10;3.60;98.80
14771;DHT22;7477;45.222;5.688;2023-03-01T08:24:30;3.60;98.80
14771;DHT22;7477;45.222;5.688;2023-03-01T08:27:49;3.60;98.70
14771;DHT22;7477;45.222;5.688;2023-03-01T08:34:39;3.60;98.70
14771;DHT22;7477;45.222;5.688;2023-03-01T08:37:58;3.50;98.60
14771;DHT22;7477;45.222;5.688;2023-03-01T08:41:18;3.50;98.50
14771;DHT22;7477;45.222;5.688;2023-03-01T08:44:37;3.60;98.70
14771;DHT22;7477;45.222;5.688;2023-03-01T08:47:56;3.70;98.70
14771;DHT22;7477;45.222;5.688;2023-03-01T08:51:17;3.70;98.70
14771;DHT22;7477;45.222;5.688;2023-03-01T08:54:37;3.70;98.60
14771;DHT22;7477;45.222;5.688;2023-03-01T08:57:56;3.70;98.50
14771;DHT22;7477;45.222;5.688;2023-03-01T09:01:19;3.70;98.60
14771;DHT22;7477;45.222;5.688;2023-03-01T09:04:39;3.70;98.80
14771;DHT22;7477;45.222;5.688;2023-03-01T09:07:58;3.80;98.70
14771;DHT22;7477;45.222;5.688;2023-03-01T09:11:20;3.80;98.90
14771;DHT22;7477;45.222;5.688;2023-03-01T09:14:39;3.80;98.80
14771;DHT22;7477;45.222;5.688;2023-03-01T09:18:00;3.80;98.80
14771;DHT22;7477;45.222;5.688;2023-03-01T09:21:21;3.90;98.90
14771;DHT22;7477;45.222;5.688;2023-03-01T09:24:42;4.00;98.60
14771;DHT22;7477;45.222;5.688;2023-03-01T09:28:01;4.00;98.80
14771;DHT22;7477;45.222;5.688;2023-03-01T09:31:22;4.00;98.90
14771;DHT22;7477;45.222;5.688;2023-03-01T09:34:41;4.10;98.90
14771;DHT22;7477;45.222;5.688;2023-03-01T09:38:20;4.20;98.90
14771;DHT22;7477;45.222;5.688;2023-03-01T09:45:20;4.30;98.90
14771;DHT22;7477;45.222;5.688;2023-03-01T09:48:49;4.30;98.80
14771;DHT22;7477;45.222;5.688;2023-03-01T09:55:59;4.20;98.40
14771;DHT22;7477;45.222;5.688;2023-03-01T10:03:40;4.30;98.80
14771;DHT22;7477;45.222;5.688;2023-03-01T10:10:36;4.50;99.10
14771;DHT22;7477;45.222;5.688;2023-03-01T10:17:39;4.50;99.10
14771;DHT22;7477;45.222;5.688;2023-03-01T10:21:05;4.50;98.60
14771;DHT22;7477;45.222;5.688;2023-03-01T10:24:30;4.50;98.60
14771;DHT22;7477;45.222;5.688;2023-03-01T10:27:55;4.50;98.50
14771;DHT22;7477;45.222;5.688;2023-03-01T10:31:22;4.60;98.70
14771;DHT22;7477;45.222;5.688;2023-03-01T10:34:46;4.70;98.60
14771;DHT22;7477;45.222;5.688;2023-03-01T10:38:08;4.70;98.60
14771;DHT22;7477;45.222;5.688;2023-03-01T10:41:27;4.80;98.40
14771;DHT22;7477;45.222;5.688;2023-03-01T10:44:48;4.90;98.30
14771;DHT22;7477;45.222;5.688;2023-03-01T10:51:27;5.00;98.30
14771;DHT22;7477;45.222;5.688;2023-03-01T10:54:58;5.00;98.20
14771;DHT22;7477;45.222;5.688;2023-03-01T10:58:20;5.10;98.10
14771;DHT22;7477;45.222;5.688;2023-03-01T11:01:39;5.10;98.10
14771;DHT22;7477;45.222;5.688;2023-03-01T11:08:39;5.20;98.20
14771;DHT22;7477;45.222;5.688;2023-03-01T11:12:00;5.20;97.60
14771;DHT22;7477;45.222;5.688;2023-03-01T11:15:25;5.20;97.80
14771;DHT22;7477;45.222;5.688;2023-03-01T11:18:56;5.10;97.40
14771;DHT22;7477;45.222;5.688;2023-03-01T11:22:20;5.10;97.60
14771;DHT22;7477;45.222;5.688;2023-03-01T11:25:43;5.00;97.30
14771;DHT22;7477;45.222;5.688;2023-03-01T11:29:06;5.00;97.50
14771;DHT22;7477;45.222;5.688;2023-03-01T11:32:29;5.10;97.10
14771;DHT22;7477;45.222;5.688;2023-03-01T11:39:58;5.10;97.30
14771;DHT22;7477;45.222;5.688;2023-03-01T11:50:47;5.20;97.10
14771;DHT22;7477;45.222;5.688;2023-03-01T11:54:13;5.30;96.70
14771;DHT22;7477;45.222;5.688;2023-03-01T12:23:39;5.50;96.10
14771;DHT22;7477;45.222;5.688;2023-03-01T12:35:13;5.60;95.90
14771;DHT22;7477;45.222;5.688;2023-03-01T12:39:46;5.70;96.00
14771;DHT22;7477;45.222;5.688;2023-03-01T12:42:38;5.70;95.60
14771;DHT22;7477;45.222;5.688;2023-03-01T12:49:44;5.80;95.60
14771;DHT22;7477;45.222;5.688;2023-03-01T12:53:04;5.90;95.70
14771;DHT22;7477;45.222;5.688;2023-03-01T12:56:27;5.90;95.40
14771;DHT22;7477;45.222;5.688;2023-03-01T12:59:51;5.90;95.40
14771;DHT22;7477;45.222;5.688;2023-03-01T13:10:56;6.00;95.10
14771;DHT22;7477;45.222;5.688;2023-03-01T13:17:43;6.10;95.20
14771;DHT22;7477;45.222;5.688;2023-03-01T13:21:04;6.30;95.10
14771;DHT22;7477;45.222;5.688;2023-03-01T13:31:57;6.30;94.70
14771;DHT22;7477;45.222;5.688;2023-03-01T13:38:54;6.20;94.80
14771;DHT22;7477;45.222;5.688;2023-03-01T13:42:43;6.10;94.50
14771;DHT22;7477;45.222;5.688;2023-03-01T13:46:14;6.00;94.70
14771;DHT22;7477;45.222;5.688;2023-03-01T13:49:58;6.00;94.60
14771;DHT22;7477;45.222;5.688;2023-03-01T13:53:19;6.10;94.90
14771;DHT22;7477;45.222;5.688;2023-03-01T13:56:40;6.10;94.90
14771;DHT22;7477;45.222;5.688;2023-03-01T13:59:59;6.10;94.70
14771;DHT22;7477;45.222;5.688;2023-03-01T14:03:20;6.10;94.90
14771;DHT22;7477;45.222;5.688;2023-03-01T14:06:39;6.00;94.80
14771;DHT22;7477;45.222;5.688;2023-03-01T14:10:01;6.00;94.90
14771;DHT22;7477;45.222;5.688;2023-03-01T14:17:06;5.90;95.00
14771;DHT22;7477;45.222;5.688;2023-03-01T14:20:42;6.00;95.10
14771;DHT22;7477;45.222;5.688;2023-03-01T14:24:02;6.00;95.30
14771;DHT22;7477;45.222;5.688;2023-03-01T14:27:43;6.10;95.30
14771;DHT22;7477;45.222;5.688;2023-03-01T14:31:03;6.20;95.40
14771;DHT22;7477;45.222;5.688;2023-03-01T14:34:45;6.10;95.40
14771;DHT22;7477;45.222;5.688;2023-03-01T14:38:05;6.00;95.40
14771;DHT22;7477;45.222;5.688;2023-03-01T14:41:27;5.90;95.20
14771;DHT22;7477;45.222;5.688;2023-03-01T14:44:49;5.80;95.20
14771;DHT22;7477;45.222;5.688;2023-03-01T14:48:11;5.80;95.60
14771;DHT22;7477;45.222;5.688;2023-03-01T14:51:39;5.80;95.50
14771;DHT22;7477;45.222;5.688;2023-03-01T14:54:59;5.90;95.70
14771;DHT22;7477;45.222;5.688;2023-03-01T14:58:23;5.80;95.40
14771;DHT22;7477;45.222;5.688;2023-03-01T15:01:43;5.70;95.60
14771;DHT22;7477;45.222;5.688;2023-03-01T15:05:04;5.60;95.60
14771;DHT22;7477;45.222;5.688;2023-03-01T15:08:27;5.80;96.10
14771;DHT22;7477;45.222;5.688;2023-03-01T15:11:51;6.00;95.60
14771;DHT22;7477;45.222;5.688;2023-03-01T15:18:46;5.70;95.40
14771;DHT22;7477;45.222;5.688;2023-03-01T15:22:16;5.70;95.90
14771;DHT22;7477;45.222;5.688;2023-03-01T15:25:36;5.60;95.60
14771;DHT22;7477;45.222;5.688;2023-03-01T15:28:59;5.70;95.80
14771;DHT22;7477;45.222;5.688;2023-03-01T15:32:28;5.50;95.70
14771;DHT22;7477;45.222;5.688;2023-03-01T15:35:50;5.50;95.80
14771;DHT22;7477;45.222;5.688;2023-03-01T15:40:02;5.50;96.00
14771;DHT22;7477;45.222;5.688;2023-03-01T15:43:44;5.50;95.90
14771;DHT22;7477;45.222;5.688;2023-03-01T15:50:54;5.80;95.60
14771;DHT22;7477;45.222;5.688;2023-03-01T15:54:20;5.80;95.50
14771;DHT22;7477;45.222;5.688;2023-03-01T15:57:40;5.70;95.50
14771;DHT22;7477;45.222;5.688;2023-03-01T16:00:59;5.80;95.60
14771;DHT22;7477;45.222;5.688;2023-03-01T16:04:19;5.70;95.40
14771;DHT22;7477;45.222;5.688;2023-03-01T16:07:41;5.50;95.70
14771;DHT22;7477;45.222;5.688;2023-03-01T16:11:01;5.40;95.80
14771;DHT22;7477;45.222;5.688;2023-03-01T16:14:23;5.30;95.90
14771;DHT22;7477;45.222;5.688;2023-03-01T16:17:44;5.30;96.10
14771;DHT22;7477;45.222;5.688;2023-03-01T16:21:03;5.20;96.10
14771;DHT22;7477;45.222;5.688;2023-03-01T16:24:23;5.20;96.30
14771;DHT22;7477;45.222;5.688;2023-03-01T16:27:43;5.20;96.30
14771;DHT22;7477;45.222;5.688;2023-03-01T16:31:03;5.20;96.40
14771;DHT22;7477;45.222;5.688;2023-03-01T16:34:23;5.20;96.60
14771;DHT22;7477;45.222;5.688;2023-03-01T16:37:43;5.10;96.40
14771;DHT22;7477;45.222;5.688;2023-03-01T16:41:03;5.10;96.70
14771;DHT22;7477;45.222;5.688;2023-03-01T16:44:22;5.00;96.60
14771;DHT22;7477;45.222;5.688;2023-03-01T16:47:41;5.00;96.70
14771;DHT22;7477;45.222;5.688;2023-03-01T16:51:01;5.00;96.70
14771;DHT22;7477;45.222;5.688;2023-03-01T16:54:20;5.00;96.70
14771;DHT22;7477;45.222;5.688;2023-03-01T16:57:40;4.90;96.70
14771;DHT22;7477;45.222;5.688;2023-03-01T17:01:06;4.80;96.60
14771;DHT22;7477;45.222;5.688;2023-03-01T17:04:26;4.70;96.80
14771;DHT22;7477;45.222;5.688;2023-03-01T17:07:46;4.70;96.80
14771;DHT22;7477;45.222;5.688;2023-03-01T17:11:10;4.80;96.90
14771;DHT22;7477;45.222;5.688;2023-03-01T17:14:30;4.80;96.80
14771;DHT22;7477;45.222;5.688;2023-03-01T17:17:49;4.70;96.90
14771;DHT22;7477;45.222;5.688;2023-03-01T17:21:10;4.70;96.90
14771;DHT22;7477;45.222;5.688;2023-03-01T17:24:37;4.70;96.80
14771;DHT22;7477;45.222;5.688;2023-03-01T17:27:58;4.70;96.90
14771;DHT22;7477;45.222;5.688;2023-03-01T17:31:18;4.60;96.90
14771;DHT22;7477;45.222;5.688;2023-03-01T17:34:37;4.60;97.10
14771;DHT22;7477;45.222;5.688;2023-03-01T17:37:57;4.60;97.10
14771;DHT22;7477;45.222;5.688;2023-03-01T17:41:16;4.60;97.20
14771;DHT22;7477;45.222;5.688;2023-03-01T17:44:36;4.60;97.20
14771;DHT22;7477;45.222;5.688;2023-03-01T17:47:56;4.60;97.20
14771;DHT22;7477;45.222;5.688;2023-03-01T17:51:16;4.80;97.40
14771;DHT22;7477;45.222;5.688;2023-03-01T17:54:35;4.70;97.20
14771;DHT22;7477;45.222;5.688;2023-03-01T17:57:54;4.50;97.20
14771;DHT22;7477;45.222;5.688;2023-03-01T18:01:19;4.50;97.20
14771;DHT22;7477;45.222;5.688;2023-03-01T18:04:38;4.50;97.20
14771;DHT22;7477;45.222;5.688;2023-03-01T18:07:57;4.40;97.30
14771;DHT22;7477;45.222;5.688;2023-03-01T18:11:17;4.50;97.30
14771;DHT22;7477;45.222;5.688;2023-03-01T18:14:37;4.40;97.20
14771;DHT22;7477;45.222;5.688;2023-03-01T18:17:57;4.40;97.20
14771;DHT22;7477;45.222;5.688;2023-03-01T18:21:16;4.50;97.30
14771;DHT22;7477;45.222;5.688;2023-03-01T18:24:39;4.50;97.30
14771;DHT22;7477;45.222;5.688;2023-03-01T18:27:58;4.50;97.30
14771;DHT22;7477;45.222;5.688;2023-03-01T18:31:20;4.50;97.40
14771;DHT22;7477;45.222;5.688;2023-03-01T18:34:40;4.40;97.40
14771;DHT22;7477;45.222;5.688;2023-03-01T18:37:59;4.40;97.30
14771;DHT22;7477;45.222;5.688;2023-03-01T18:41:18;4.40;97.40
14771;DHT22;7477;45.222;5.688;2023-03-01T18:44:38;4.40;97.40
14771;DHT22;7477;45.222;5.688;2023-03-01T18:47:58;4.40;97.50
14771;DHT22;7477;45.222;5.688;2023-03-01T18:51:19;4.40;97.60
14771;DHT22;7477;45.222;5.688;2023-03-01T18:54:38;4.40;97.60
14771;DHT22;7477;45.222;5.688;2023-03-01T18:57:57;4.40;97.60
14771;DHT22;7477;45.222;5.688;2023-03-01T19:01:19;4.40;97.50
14771;DHT22;7477;45.222;5.688;2023-03-01T19:04:39;4.40;97.60
14771;DHT22;7477;45.222;5.688;2023-03-01T19:07:58;4.40;97.50
14771;DHT22;7477;45.222;5.688;2023-03-01T19:11:18;4.40;97.60
14771;DHT22;7477;45.222;5.688;2023-03-01T19:14:37;4.40;97.70
14771;DHT22;7477;45.222;5.688;2023-03-01T19:17:56;4.40;97.70
14771;DHT22;7477;45.222;5.688;2023-03-01T19:21:19;4.40;97.70
14771;DHT22;7477;45.222;5.688;2023-03-01T19:24:39;4.40;97.70
14771;DHT22;7477;45.222;5.688;2023-03-01T19:27:58;4.40;97.80
14771;DHT22;7477;45.222;5.688;2023-03-01T19:31:22;4.40;97.80
14771;DHT22;7477;45.222;5.688;2023-03-01T19:34:43;4.40;97.80
14771;DHT22;7477;45.222;5.688;2023-03-01T19:38:04;4.40;97.80
14771;DHT22;7477;45.222;5.688;2023-03-01T19:41:23;4.40;97.80
14771;DHT22;7477;45.222;5.688;2023-03-01T19:44:43;4.30;97.70
14771;DHT22;7477;45.222;5.688;2023-03-01T19:48:02;4.40;97.80
14771;DHT22;7477;45.222;5.688;2023-03-01T19:51:22;4.40;97.80
14771;DHT22;7477;45.222;5.688;2023-03-01T19:54:42;4.40;97.80
14771;DHT22;7477;45.222;5.688;2023-03-01T19:58:01;4.40;97.80
14771;DHT22;7477;45.222;5.688;2023-03-01T20:01:21;4.40;97.80
14771;DHT22;7477;45.222;5.688;2023-03-01T20:04:39;4.40;97.80
14771;DHT22;7477;45.222;5.688;2023-03-01T20:07:59;4.40;97.80
14771;DHT22;7477;45.222;5.688;2023-03-01T20:11:19;4.40;98.00
14771;DHT22;7477;45.222;5.688;2023-03-01T20:14:39;4.40;97.90
14771;DHT22;7477;45.222;5.688;2023-03-01T20:17:58;4.40;98.00
14771;DHT22;7477;45.222;5.688;2023-03-01T20:21:17;4.40;98.10
14771;DHT22;7477;45.222;5.688;2023-03-01T20:24:38;4.40;98.00
14771;DHT22;7477;45.222;5.688;2023-03-01T20:27:58;4.40;98.10
14771;DHT22;7477;45.222;5.688;2023-03-01T20:31:19;4.40;98.00
14771;DHT22;7477;45.222;5.688;2023-03-01T20:34:39;4.40;98.10
14771;DHT22;7477;45.222;5.688;2023-03-01T20:37:58;4.40;98.00
14771;DHT22;7477;45.222;5.688;2023-03-01T20:41:18;4.40;98.10
14771;DHT22;7477;45.222;5.688;2023-03-01T20:44:37;4.40;98.00
14771;DHT22;7477;45.222;5.688;2023-03-01T20:48:02;4.40;98.00
14771;DHT22;7477;45.222;5.688;2023-03-01T20:51:21;4.40;97.90
14771;DHT22;7477;45.222;5.688;2023-03-01T20:54:40;4.40;97.80
14771;DHT22;7477;45.222;5.688;2023-03-01T20:57:59;4.40;97.80
14771;DHT22;7477;45.222;5.688;2023-03-01T21:01:19;4.40;97.80
14771;DHT22;7477;45.222;5.688;2023-03-01T21:04:39;4.40;97.80
14771;DHT22;7477;45.222;5.688;2023-03-01T21:07:59;4.40;97.80
14771;DHT22;7477;45.222;5.688;2023-03-01T21:11:21;4.40;97.90
14771;DHT22;7477;45.222;5.688;2023-03-01T21:14:43;4.50;98.00
14771;DHT22;7477;45.222;5.688;2023-03-01T21:18:02;4.40;97.90
14771;DHT22;7477;45.222;5.688;2023-03-01T21:21:22;4.50;98.10
14771;DHT22;7477;45.222;5.688;2023-03-01T21:24:42;4.50;98.10
14771;DHT22;7477;45.222;5.688;2023-03-01T21:28:01;4.50;98.20
14771;DHT22;7477;45.222;5.688;2023-03-01T21:31:25;4.50;98.00
14771;DHT22;7477;45.222;5.688;2023-03-01T21:34:49;4.50;98.10
14771;DHT22;7477;45.222;5.688;2023-03-01T21:38:08;4.50;98.00
14771;DHT22;7477;45.222;5.688;2023-03-01T21:41:30;4.50;97.90
14771;DHT22;7477;45.222;5.688;2023-03-01T21:44:50;4.60;98.00
14771;DHT22;7477;45.222;5.688;2023-03-01T21:48:09;4.60;98.10
14771;DHT22;7477;45.222;5.688;2023-03-01T21:51:29;4.60;98.10
14771;DHT22;7477;45.222;5.688;2023-03-01T21:54:50;4.60;98.20
14771;DHT22;7477;45.222;5.688;2023-03-01T21:58:09;4.60;98.60
14771;DHT22;7477;45.222;5.688;2023-03-01T22:01:29;4.60;98.70
14771;DHT22;7477;45.222;5.688;2023-03-01T22:04:51;4.60;98.90
14771;DHT22;7477;45.222;5.688;2023-03-01T22:08:15;4.60;99.00
14771;DHT22;7477;45.222;5.688;2023-03-01T22:11:38;4.60;99.20
14771;DHT22;7477;45.222;5.688;2023-03-01T22:14:57;4.60;99.20
14771;DHT22;7477;45.222;5.688;2023-03-01T22:18:16;4.60;99.20
14771;DHT22;7477;45.222;5.688;2023-03-01T22:21:40;4.50;98.90
14771;DHT22;7477;45.222;5.688;2023-03-01T22:25:01;4.50;98.80
14771;DHT22;7477;45.222;5.688;2023-03-01T22:28:20;4.60;99.20
14771;DHT22;7477;45.222;5.688;2023-03-01T22:31:40;4.60;99.30
14771;DHT22;7477;45.222;5.688;2023-03-01T22:35:00;4.60;99.40
14771;DHT22;7477;45.222;5.688;2023-03-01T22:38:19;4.60;99.50
14771;DHT22;7477;45.222;5.688;2023-03-01T22:41:40;4.60;99.40
14771;DHT22;7477;45.222;5.688;2023-03-01T22:45:02;4.60;99.20
14771;DHT22;7477;45.222;5.688;2023-03-01T22:48:21;4.60;99.10
14771;DHT22;7477;45.222;5.688;2023-03-01T22:51:42;4.60;99.30
14771;DHT22;7477;45.222;5.688;2023-03-01T22:55:02;4.60;99.20
14771;DHT22;7477;45.222;5.688;2023-03-01T22:58:21;4.60;99.20
14771;DHT22;7477;45.222;5.688;2023-03-01T23:01:41;4.60;99.40
14771;DHT22;7477;45.222;5.688;2023-03-01T23:05:02;4.60;99.40
14771;DHT22;7477;45.222;5.688;2023-03-01T23:08:21;4.60;99.20
14771;DHT22;7477;45.222;5.688;2023-03-01T23:11:40;4.70;99.50
14771;DHT22;7477;45.222;5.688;2023-03-01T23:15:00;4.60;99.30
14771;DHT22;7477;45.222;5.688;2023-03-01T23:18:19;4.50;99.20
14771;DHT22;7477;45.222;5.688;2023-03-01T23:21:38;4.60;99.40
14771;DHT22;7477;45.222;5.688;2023-03-01T23:25:02;4.60;99.50
14771;DHT22;7477;45.222;5.688;2023-03-01T23:28:22;4.60;99.80
14771;DHT22;7477;45.222;5.688;2023-03-01T23:31:41;4.60;99.90
14771;DHT22;7477;45.222;5.688;2023-03-01T23:35:01;4.60;99.90
14771;DHT22;7477;45.222;5.688;2023-03-01T23:38:20;4.60;99.90
14771;DHT22;7477;45.222;5.688;2023-03-01T23:41:40;4.60;99.90
14771;DHT22;7477;45.222;5.688;2023-03-01T23:44:59;4.60;99.90
14771;DHT22;7477;45.222;5.688;2023-03-01T23:48:18;4.60;99.90
14771;DHT22;7477;45.222;5.688;2023-03-01T23:51:40;4.70;99.90
14771;DHT22;7477;45.222;5.688;2023-03-01T23:55:00;4.70;99.90